sensor_id;sensor_type;location;lat;lon;timestamp;P1;durP1;ratioP1;P2;durP2;ratioP2
22851;SDS011;11592;45.460;9.240;2023-07-31T00:01:45;20.75;;;13.45;;
22851;SDS011;11592;45.460;9.240;2023-07-31T00:04:12;18.50;;;12.43;;
22851;SDS011;11592;45.460;9.240;2023-07-31T00:06:39;20.20;;;13.15;;
22851;SDS011;11592;45.460;9.240;2023-07-31T00:09:06;20.35;;;13.98;;
22851;SDS011;11592;45.460;9.240;2023-07-31T00:11:33;21.55;;;15.93;;
22851;SDS011;11592;45.460;9.240;2023-07-31T00:13:59;20.63;;;13.52;;
22851;SDS011;11592;45.460;9.240;2023-07-31T00:16:26;24.83;;;17.30;;
22851;SDS011;11592;45.460;9.240;2023-07-31T00:18:53;22.92;;;15.23;;
22851;SDS011;11592;45.460;9.240;2023-07-31T00:21:20;19.80;;;15.02;;
22851;SDS011;11592;45.460;9.240;2023-07-31T00:23:47;23.92;;;16.05;;
22851;SDS011;11592;45.460;9.240;2023-07-31T00:26:14;20.90;;;15.73;;
22851;SDS011;11592;45.460;9.240;2023-07-31T00:28:41;20.00;;;15.05;;
22851;SDS011;11592;45.460;9.240;2023-07-31T00:31:07;17.38;;;12.93;;
22851;SDS011;11592;45.460;9.240;2023-07-31T00:33:34;17.80;;;13.27;;
22851;SDS011;11592;45.460;9.240;2023-07-31T00:36:02;21.05;;;15.88;;
22851;SDS011;11592;45.460;9.240;2023-07-31T00:38:29;23.13;;;12.98;;
22851;SDS011;11592;45.460;9.240;2023-07-31T00:40:56;20.13;;;14.65;;
22851;SDS011;11592;45.460;9.240;2023-07-31T00:43:23;15.55;;;11.75;;
22851;SDS011;11592;45.460;9.240;2023-07-31T00:45:50;15.77;;;12.68;;
22851;SDS011;11592;45.460;9.240;2023-07-31T00:48:17;16.73;;;12.57;;
22851;SDS011;11592;45.460;9.240;2023-07-31T00:50:44;21.33;;;15.18;;
22851;SDS011;11592;45.460;9.240;2023-07-31T00:53:11;19.20;;;15.35;;
22851;SDS011;11592;45.460;9.240;2023-07-31T00:55:39;21.52;;;14.32;;
22851;SDS011;11592;45.460;9.240;2023-07-31T00:58:06;22.58;;;16.35;;
22851;SDS011;11592;45.460;9.240;2023-07-31T01:00:33;23.88;;;16.10;;
22851;SDS011;11592;45.460;9.240;2023-07-31T01:03:00;21.10;;;15.02;;
22851;SDS011;11592;45.460;9.240;2023-07-31T01:05:49;18.83;;;13.30;;
22851;SDS011;11592;45.460;9.240;2023-07-31T01:08:29;20.73;;;13.98;;
22851;SDS011;11592;45.460;9.240;2023-07-31T01:11:08;19.60;;;13.55;;
22851;SDS011;11592;45.460;9.240;2023-07-31T01:13:57;17.48;;;12.27;;
22851;SDS011;11592;45.460;9.240;2023-07-31T01:16:25;15.63;;;12.73;;
22851;SDS011;11592;45.460;9.240;2023-07-31T01:18:53;16.60;;;11.68;;
22851;SDS011;11592;45.460;9.240;2023-07-31T01:26:40;16.88;;;11.30;;
22851;SDS011;11592;45.460;9.240;2023-07-31T01:29:17;13.68;;;10.25;;
22851;SDS011;11592;45.460;9.240;2023-07-31T01:31:45;16.23;;;9.13;;
22851;SDS011;11592;45.460;9.240;2023-07-31T01:34:16;15.50;;;10.93;;
22851;SDS011;11592;45.460;9.240;2023-07-31T01:36:44;12.40;;;9.73;;
22851;SDS011;11592;45.460;9.240;2023-07-31T01:39:11;15.52;;;9.40;;
22851;SDS011;11592;45.460;9.240;2023-07-31T01:41:38;13.23;;;9.60;;
22851;SDS011;11592;45.460;9.240;2023-07-31T01:44:05;14.00;;;10.05;;
22851;SDS011;11592;45.460;9.240;2023-07-31T01:46:32;14.52;;;10.13;;
22851;SDS011;11592;45.460;9.240;2023-07-31T01:48:59;13.52;;;8.13;;
22851;SDS011;11592;45.460;9.240;2023-07-31T01:51:25;12.27;;;9.45;;
22851;SDS011;11592;45.460;9.240;2023-07-31T01:53:52;11.25;;;8.55;;
22851;SDS011;11592;45.460;9.240;2023-07-31T01:56:19;11.00;;;8.15;;
22851;SDS011;11592;45.460;9.240;2023-07-31T01:58:46;12.35;;;7.82;;
22851;SDS011;11592;45.460;9.240;2023-07-31T02:01:12;10.95;;;7.43;;
22851;SDS011;11592;45.460;9.240;2023-07-31T02:03:39;12.48;;;8.82;;
22851;SDS011;11592;45.460;9.240;2023-07-31T02:06:08;16.15;;;8.02;;
22851;SDS011;11592;45.460;9.240;2023-07-31T02:08:35;8.93;;;7.72;;
22851;SDS011;11592;45.460;9.240;2023-07-31T02:11:02;10.45;;;6.90;;
22851;SDS011;11592;45.460;9.240;2023-07-31T02:13:29;10.00;;;7.00;;
22851;SDS011;11592;45.460;9.240;2023-07-31T02:15:56;10.43;;;7.57;;
22851;SDS011;11592;45.460;9.240;2023-07-31T02:18:23;10.57;;;7.25;;
22851;SDS011;11592;45.460;9.240;2023-07-31T02:20:50;9.07;;;6.25;;
22851;SDS011;11592;45.460;9.240;2023-07-31T02:23:18;10.45;;;6.82;;
22851;SDS011;11592;45.460;9.240;2023-07-31T02:25:45;9.10;;;6.68;;
22851;SDS011;11592;45.460;9.240;2023-07-31T02:28:12;8.65;;;6.07;;
22851;SDS011;11592;45.460;9.240;2023-07-31T02:30:39;8.40;;;6.28;;
22851;SDS011;11592;45.460;9.240;2023-07-31T02:33:09;10.77;;;6.63;;
22851;SDS011;11592;45.460;9.240;2023-07-31T02:35:36;8.10;;;6.18;;
22851;SDS011;11592;45.460;9.240;2023-07-31T02:38:03;8.80;;;6.43;;
22851;SDS011;11592;45.460;9.240;2023-07-31T02:40:30;11.95;;;6.70;;
22851;SDS011;11592;45.460;9.240;2023-07-31T02:42:57;6.20;;;5.25;;
22851;SDS011;11592;45.460;9.240;2023-07-31T02:45:23;8.23;;;6.47;;
22851;SDS011;11592;45.460;9.240;2023-07-31T02:47:50;8.45;;;5.80;;
22851;SDS011;11592;45.460;9.240;2023-07-31T02:50:18;10.88;;;7.05;;
22851;SDS011;11592;45.460;9.240;2023-07-31T02:52:45;10.77;;;6.63;;
22851;SDS011;11592;45.460;9.240;2023-07-31T02:55:11;10.15;;;6.47;;
22851;SDS011;11592;45.460;9.240;2023-07-31T02:57:38;8.70;;;5.47;;
22851;SDS011;11592;45.460;9.240;2023-07-31T03:00:05;6.22;;;4.90;;
22851;SDS011;11592;45.460;9.240;2023-07-31T03:02:32;8.90;;;5.60;;
22851;SDS011;11592;45.460;9.240;2023-07-31T03:05:00;11.27;;;5.50;;
22851;SDS011;11592;45.460;9.240;2023-07-31T03:07:27;8.27;;;5.82;;
22851;SDS011;11592;45.460;9.240;2023-07-31T03:09:54;8.45;;;5.43;;
22851;SDS011;11592;45.460;9.240;2023-07-31T03:12:21;8.18;;;5.45;;
22851;SDS011;11592;45.460;9.240;2023-07-31T03:14:48;6.93;;;5.05;;
22851;SDS011;11592;45.460;9.240;2023-07-31T03:17:15;8.20;;;5.05;;
22851;SDS011;11592;45.460;9.240;2023-07-31T03:19:41;7.07;;;4.82;;
22851;SDS011;11592;45.460;9.240;2023-07-31T03:22:08;6.93;;;4.95;;
22851;SDS011;11592;45.460;9.240;2023-07-31T03:24:35;9.40;;;5.72;;
22851;SDS011;11592;45.460;9.240;2023-07-31T03:27:02;6.47;;;5.50;;
22851;SDS011;11592;45.460;9.240;2023-07-31T03:29:29;9.73;;;5.82;;
22851;SDS011;11592;45.460;9.240;2023-07-31T03:31:55;7.90;;;5.53;;
22851;SDS011;11592;45.460;9.240;2023-07-31T03:34:22;6.75;;;5.32;;
22851;SDS011;11592;45.460;9.240;2023-07-31T03:36:49;8.13;;;5.97;;
22851;SDS011;11592;45.460;9.240;2023-07-31T03:39:16;9.20;;;5.88;;
22851;SDS011;11592;45.460;9.240;2023-07-31T03:41:43;8.00;;;5.07;;
22851;SDS011;11592;45.460;9.240;2023-07-31T03:44:09;8.00;;;5.65;;
22851;SDS011;11592;45.460;9.240;2023-07-31T03:46:36;7.35;;;5.78;;
22851;SDS011;11592;45.460;9.240;2023-07-31T03:49:04;11.25;;;5.63;;
22851;SDS011;11592;45.460;9.240;2023-07-31T03:51:30;7.72;;;5.40;;
22851;SDS011;11592;45.460;9.240;2023-07-31T03:53:57;9.50;;;5.15;;
22851;SDS011;11592;45.460;9.240;2023-07-31T03:56:24;7.00;;;5.25;;
22851;SDS011;11592;45.460;9.240;2023-07-31T03:58:51;9.63;;;5.15;;
22851;SDS011;11592;45.460;9.240;2023-07-31T04:01:19;9.68;;;5.28;;
22851;SDS011;11592;45.460;9.240;2023-07-31T04:03:46;7.35;;;4.95;;
22851;SDS011;11592;45.460;9.240;2023-07-31T04:06:13;11.68;;;5.30;;
22851;SDS011;11592;45.460;9.240;2023-07-31T04:08:44;9.07;;;5.10;;
22851;SDS011;11592;45.460;9.240;2023-07-31T04:11:11;7.03;;;5.82;;
22851;SDS011;11592;45.460;9.240;2023-07-31T04:13:38;8.98;;;6.10;;
22851;SDS011;11592;45.460;9.240;2023-07-31T04:16:05;11.10;;;5.75;;
22851;SDS011;11592;45.460;9.240;2023-07-31T04:18:32;7.15;;;5.13;;
22851;SDS011;11592;45.460;9.240;2023-07-31T04:20:59;7.75;;;5.00;;
22851;SDS011;11592;45.460;9.240;2023-07-31T04:23:27;8.30;;;5.03;;
22851;SDS011;11592;45.460;9.240;2023-07-31T04:25:54;10.10;;;5.20;;
22851;SDS011;11592;45.460;9.240;2023-07-31T04:28:21;7.20;;;5.32;;
22851;SDS011;11592;45.460;9.240;2023-07-31T04:30:48;8.60;;;5.90;;
22851;SDS011;11592;45.460;9.240;2023-07-31T04:33:16;6.82;;;5.47;;
22851;SDS011;11592;45.460;9.240;2023-07-31T04:35:48;7.80;;;5.53;;
22851;SDS011;11592;45.460;9.240;2023-07-31T04:38:21;7.30;;;5.60;;
22851;SDS011;11592;45.460;9.240;2023-07-31T04:40:48;8.93;;;5.40;;
22851;SDS011;11592;45.460;9.240;2023-07-31T04:43:15;10.60;;;5.55;;
22851;SDS011;11592;45.460;9.240;2023-07-31T04:45:45;7.53;;;5.43;;
22851;SDS011;11592;45.460;9.240;2023-07-31T04:48:13;8.52;;;5.20;;
22851;SDS011;11592;45.460;9.240;2023-07-31T04:50:40;5.78;;;4.82;;
22851;SDS011;11592;45.460;9.240;2023-07-31T04:53:07;9.35;;;5.72;;
22851;SDS011;11592;45.460;9.240;2023-07-31T04:55:34;7.75;;;6.00;;
22851;SDS011;11592;45.460;9.240;2023-07-31T04:58:01;10.45;;;5.72;;
22851;SDS011;11592;45.460;9.240;2023-07-31T05:00:28;8.02;;;4.85;;
22851;SDS011;11592;45.460;9.240;2023-07-31T05:02:55;6.63;;;4.78;;
22851;SDS011;11592;45.460;9.240;2023-07-31T05:05:22;10.20;;;5.47;;
22851;SDS011;11592;45.460;9.240;2023-07-31T05:07:48;6.30;;;4.88;;
22851;SDS011;11592;45.460;9.240;2023-07-31T05:10:15;5.82;;;4.43;;
22851;SDS011;11592;45.460;9.240;2023-07-31T05:12:42;5.97;;;4.55;;
22851;SDS011;11592;45.460;9.240;2023-07-31T05:15:09;7.65;;;4.57;;
22851;SDS011;11592;45.460;9.240;2023-07-31T05:17:36;4.95;;;4.45;;
22851;SDS011;11592;45.460;9.240;2023-07-31T05:20:03;7.07;;;4.72;;
22851;SDS011;11592;45.460;9.240;2023-07-31T05:22:30;6.95;;;4.45;;
22851;SDS011;11592;45.460;9.240;2023-07-31T05:24:57;7.68;;;4.57;;
22851;SDS011;11592;45.460;9.240;2023-07-31T05:27:23;6.22;;;4.70;;
22851;SDS011;11592;45.460;9.240;2023-07-31T05:29:50;8.05;;;4.78;;
22851;SDS011;11592;45.460;9.240;2023-07-31T05:32:17;6.82;;;4.60;;
22851;SDS011;11592;45.460;9.240;2023-07-31T05:34:44;7.88;;;4.97;;
22851;SDS011;11592;45.460;9.240;2023-07-31T05:37:11;8.05;;;5.10;;
22851;SDS011;11592;45.460;9.240;2023-07-31T05:39:38;9.82;;;4.68;;
22851;SDS011;11592;45.460;9.240;2023-07-31T05:42:05;6.53;;;4.70;;
22851;SDS011;11592;45.460;9.240;2023-07-31T05:44:32;6.20;;;4.78;;
22851;SDS011;11592;45.460;9.240;2023-07-31T05:46:59;8.52;;;5.00;;
22851;SDS011;11592;45.460;9.240;2023-07-31T05:49:25;8.05;;;4.72;;
22851;SDS011;11592;45.460;9.240;2023-07-31T05:51:52;8.48;;;4.28;;
22851;SDS011;11592;45.460;9.240;2023-07-31T05:54:19;9.50;;;4.90;;
22851;SDS011;11592;45.460;9.240;2023-07-31T05:56:46;8.70;;;4.30;;
22851;SDS011;11592;45.460;9.240;2023-07-31T05:59:13;7.72;;;4.47;;
22851;SDS011;11592;45.460;9.240;2023-07-31T06:01:40;9.63;;;4.45;;
22851;SDS011;11592;45.460;9.240;2023-07-31T06:04:07;6.68;;;4.70;;
22851;SDS011;11592;45.460;9.240;2023-07-31T06:06:34;6.97;;;4.28;;
22851;SDS011;11592;45.460;9.240;2023-07-31T06:09:01;8.63;;;4.95;;
22851;SDS011;11592;45.460;9.240;2023-07-31T06:11:29;7.78;;;5.35;;
22851;SDS011;11592;45.460;9.240;2023-07-31T06:13:56;9.88;;;4.65;;
22851;SDS011;11592;45.460;9.240;2023-07-31T06:16:23;8.85;;;4.82;;
22851;SDS011;11592;45.460;9.240;2023-07-31T06:18:50;6.30;;;4.32;;
22851;SDS011;11592;45.460;9.240;2023-07-31T06:21:17;6.43;;;4.20;;
22851;SDS011;11592;45.460;9.240;2023-07-31T06:23:44;9.32;;;4.70;;
22851;SDS011;11592;45.460;9.240;2023-07-31T06:26:10;8.40;;;4.22;;
22851;SDS011;11592;45.460;9.240;2023-07-31T06:28:37;8.13;;;4.28;;
22851;SDS011;11592;45.460;9.240;2023-07-31T06:31:04;6.60;;;4.65;;
22851;SDS011;11592;45.460;9.240;2023-07-31T06:33:31;6.50;;;4.32;;
22851;SDS011;11592;45.460;9.240;2023-07-31T06:35:58;7.07;;;4.30;;
22851;SDS011;11592;45.460;9.240;2023-07-31T06:38:26;5.38;;;3.90;;
22851;SDS011;11592;45.460;9.240;2023-07-31T06:40:53;6.38;;;4.20;;
22851;SDS011;11592;45.460;9.240;2023-07-31T06:43:20;6.40;;;3.67;;
22851;SDS011;11592;45.460;9.240;2023-07-31T06:45:47;5.60;;;4.35;;
22851;SDS011;11592;45.460;9.240;2023-07-31T06:48:16;9.55;;;4.25;;
22851;SDS011;11592;45.460;9.240;2023-07-31T06:50:43;8.77;;;4.05;;
22851;SDS011;11592;45.460;9.240;2023-07-31T06:53:10;5.63;;;3.40;;
22851;SDS011;11592;45.460;9.240;2023-07-31T06:55:37;4.43;;;3.50;;
22851;SDS011;11592;45.460;9.240;2023-07-31T06:58:04;4.78;;;3.30;;
22851;SDS011;11592;45.460;9.240;2023-07-31T07:00:31;5.20;;;3.35;;
22851;SDS011;11592;45.460;9.240;2023-07-31T07:02:58;4.20;;;2.80;;
22851;SDS011;11592;45.460;9.240;2023-07-31T07:05:25;4.63;;;3.50;;
22851;SDS011;11592;45.460;9.240;2023-07-31T07:07:52;3.95;;;2.67;;
22851;SDS011;11592;45.460;9.240;2023-07-31T07:10:19;4.13;;;2.70;;
22851;SDS011;11592;45.460;9.240;2023-07-31T07:12:46;4.20;;;2.50;;
22851;SDS011;11592;45.460;9.240;2023-07-31T07:15:14;5.32;;;2.78;;
22851;SDS011;11592;45.460;9.240;2023-07-31T07:17:40;2.85;;;2.55;;
22851;SDS011;11592;45.460;9.240;2023-07-31T07:20:08;3.45;;;2.35;;
22851;SDS011;11592;45.460;9.240;2023-07-31T07:22:36;3.72;;;2.50;;
22851;SDS011;11592;45.460;9.240;2023-07-31T07:25:03;5.35;;;2.33;;
22851;SDS011;11592;45.460;9.240;2023-07-31T07:27:31;4.10;;;2.65;;
22851;SDS011;11592;45.460;9.240;2023-07-31T07:29:58;4.43;;;2.78;;
22851;SDS011;11592;45.460;9.240;2023-07-31T07:32:24;3.33;;;2.63;;
22851;SDS011;11592;45.460;9.240;2023-07-31T07:34:52;3.85;;;2.78;;
22851;SDS011;11592;45.460;9.240;2023-07-31T07:37:18;2.75;;;2.55;;
22851;SDS011;11592;45.460;9.240;2023-07-31T07:39:45;3.45;;;2.60;;
22851;SDS011;11592;45.460;9.240;2023-07-31T07:42:12;4.78;;;2.60;;
22851;SDS011;11592;45.460;9.240;2023-07-31T07:44:39;5.38;;;2.70;;
22851;SDS011;11592;45.460;9.240;2023-07-31T07:47:06;3.53;;;2.40;;
22851;SDS011;11592;45.460;9.240;2023-07-31T07:49:33;3.17;;;2.55;;
22851;SDS011;11592;45.460;9.240;2023-07-31T07:52:01;4.28;;;2.83;;
22851;SDS011;11592;45.460;9.240;2023-07-31T07:54:29;5.75;;;2.35;;
22851;SDS011;11592;45.460;9.240;2023-07-31T07:56:57;4.57;;;3.00;;
22851;SDS011;11592;45.460;9.240;2023-07-31T07:59:24;3.63;;;2.60;;
22851;SDS011;11592;45.460;9.240;2023-07-31T08:01:51;3.47;;;2.50;;
22851;SDS011;11592;45.460;9.240;2023-07-31T08:04:18;2.90;;;2.53;;
22851;SDS011;11592;45.460;9.240;2023-07-31T08:06:44;3.42;;;2.40;;
22851;SDS011;11592;45.460;9.240;2023-07-31T08:09:11;4.93;;;2.42;;
22851;SDS011;11592;45.460;9.240;2023-07-31T08:11:38;3.30;;;3.00;;
22851;SDS011;11592;45.460;9.240;2023-07-31T08:14:05;4.35;;;2.67;;
22851;SDS011;11592;45.460;9.240;2023-07-31T08:16:32;3.30;;;2.30;;
22851;SDS011;11592;45.460;9.240;2023-07-31T08:18:59;4.95;;;3.47;;
22851;SDS011;11592;45.460;9.240;2023-07-31T08:21:26;3.63;;;2.50;;
22851;SDS011;11592;45.460;9.240;2023-07-31T08:23:53;6.88;;;3.00;;
22851;SDS011;11592;45.460;9.240;2023-07-31T08:26:19;4.25;;;2.67;;
22851;SDS011;11592;45.460;9.240;2023-07-31T08:28:47;4.57;;;3.20;;
22851;SDS011;11592;45.460;9.240;2023-07-31T08:31:13;2.97;;;2.67;;
22851;SDS011;11592;45.460;9.240;2023-07-31T08:33:41;3.25;;;2.30;;
22851;SDS011;11592;45.460;9.240;2023-07-31T08:36:07;5.13;;;2.20;;
22851;SDS011;11592;45.460;9.240;2023-07-31T08:38:34;3.03;;;2.10;;
22851;SDS011;11592;45.460;9.240;2023-07-31T08:41:03;2.55;;;2.20;;
22851;SDS011;11592;45.460;9.240;2023-07-31T08:43:31;2.60;;;2.13;;
22851;SDS011;11592;45.460;9.240;2023-07-31T08:45:59;4.15;;;2.78;;
22851;SDS011;11592;45.460;9.240;2023-07-31T08:48:26;4.38;;;2.53;;
22851;SDS011;11592;45.460;9.240;2023-07-31T08:50:55;4.10;;;2.90;;
22851;SDS011;11592;45.460;9.240;2023-07-31T08:53:22;3.50;;;2.40;;
22851;SDS011;11592;45.460;9.240;2023-07-31T08:55:50;3.20;;;2.17;;
22851;SDS011;11592;45.460;9.240;2023-07-31T08:58:20;5.82;;;3.22;;
22851;SDS011;11592;45.460;9.240;2023-07-31T09:00:47;4.93;;;3.38;;
22851;SDS011;11592;45.460;9.240;2023-07-31T09:03:19;4.40;;;2.72;;
22851;SDS011;11592;45.460;9.240;2023-07-31T09:05:49;6.05;;;3.83;;
22851;SDS011;11592;45.460;9.240;2023-07-31T09:08:21;20.40;;;11.80;;
22851;SDS011;11592;45.460;9.240;2023-07-31T09:10:48;7.55;;;4.97;;
22851;SDS011;11592;45.460;9.240;2023-07-31T09:13:17;11.15;;;6.45;;
22851;SDS011;11592;45.460;9.240;2023-07-31T09:15:45;6.85;;;3.55;;
22851;SDS011;11592;45.460;9.240;2023-07-31T09:18:13;6.43;;;3.83;;
22851;SDS011;11592;45.460;9.240;2023-07-31T09:20:45;4.38;;;3.25;;
22851;SDS011;11592;45.460;9.240;2023-07-31T09:23:12;6.45;;;3.50;;
22851;SDS011;11592;45.460;9.240;2023-07-31T09:25:43;8.23;;;4.78;;
22851;SDS011;11592;45.460;9.240;2023-07-31T09:28:10;8.98;;;6.20;;
22851;SDS011;11592;45.460;9.240;2023-07-31T09:35:40;7.90;;;4.80;;
22851;SDS011;11592;45.460;9.240;2023-07-31T09:38:10;7.20;;;6.05;;
22851;SDS011;11592;45.460;9.240;2023-07-31T09:40:40;6.40;;;4.28;;
22851;SDS011;11592;45.460;9.240;2023-07-31T09:43:13;7.55;;;5.40;;
22851;SDS011;11592;45.460;9.240;2023-07-31T09:45:44;6.70;;;4.05;;
22851;SDS011;11592;45.460;9.240;2023-07-31T09:48:12;9.40;;;4.93;;
22851;SDS011;11592;45.460;9.240;2023-07-31T09:50:42;7.38;;;4.28;;
22851;SDS011;11592;45.460;9.240;2023-07-31T09:53:13;7.05;;;5.65;;
22851;SDS011;11592;45.460;9.240;2023-07-31T09:55:41;12.70;;;9.35;;
22851;SDS011;11592;45.460;9.240;2023-07-31T09:58:10;7.50;;;6.60;;
22851;SDS011;11592;45.460;9.240;2023-07-31T10:00:38;8.27;;;6.20;;
22851;SDS011;11592;45.460;9.240;2023-07-31T10:03:06;8.52;;;5.65;;
22851;SDS011;11592;45.460;9.240;2023-07-31T10:05:38;7.30;;;5.45;;
22851;SDS011;11592;45.460;9.240;2023-07-31T10:08:09;9.55;;;5.82;;
22851;SDS011;11592;45.460;9.240;2023-07-31T10:10:37;14.07;;;6.18;;
22851;SDS011;11592;45.460;9.240;2023-07-31T10:13:08;9.82;;;6.38;;
22851;SDS011;11592;45.460;9.240;2023-07-31T10:15:35;9.10;;;6.00;;
22851;SDS011;11592;45.460;9.240;2023-07-31T10:18:03;7.65;;;6.30;;
22851;SDS011;11592;45.460;9.240;2023-07-31T10:20:32;7.18;;;4.82;;
22851;SDS011;11592;45.460;9.240;2023-07-31T10:23:00;9.60;;;7.30;;
22851;SDS011;11592;45.460;9.240;2023-07-31T10:25:27;8.63;;;6.18;;
22851;SDS011;11592;45.460;9.240;2023-07-31T10:27:55;7.60;;;5.80;;
22851;SDS011;11592;45.460;9.240;2023-07-31T10:30:27;6.63;;;4.75;;
22851;SDS011;11592;45.460;9.240;2023-07-31T10:32:56;8.50;;;6.97;;
22851;SDS011;11592;45.460;9.240;2023-07-31T10:35:24;12.68;;;6.65;;
22851;SDS011;11592;45.460;9.240;2023-07-31T10:37:51;6.78;;;4.78;;
22851;SDS011;11592;45.460;9.240;2023-07-31T10:40:19;7.55;;;5.60;;
22851;SDS011;11592;45.460;9.240;2023-07-31T10:42:52;6.78;;;4.93;;
22851;SDS011;11592;45.460;9.240;2023-07-31T10:45:24;5.05;;;3.95;;
22851;SDS011;11592;45.460;9.240;2023-07-31T10:47:58;10.48;;;5.22;;
22851;SDS011;11592;45.460;9.240;2023-07-31T10:50:27;4.80;;;4.10;;
22851;SDS011;11592;45.460;9.240;2023-07-31T10:52:56;5.78;;;4.50;;
22851;SDS011;11592;45.460;9.240;2023-07-31T10:55:42;11.65;;;6.32;;
22851;SDS011;11592;45.460;9.240;2023-07-31T10:58:10;8.60;;;5.20;;
22851;SDS011;11592;45.460;9.240;2023-07-31T11:00:39;6.57;;;4.97;;
22851;SDS011;11592;45.460;9.240;2023-07-31T11:03:08;4.85;;;3.60;;
22851;SDS011;11592;45.460;9.240;2023-07-31T11:05:40;6.35;;;4.22;;
22851;SDS011;11592;45.460;9.240;2023-07-31T11:10:43;7.05;;;4.95;;
22851;SDS011;11592;45.460;9.240;2023-07-31T11:13:11;7.63;;;4.50;;
22851;SDS011;11592;45.460;9.240;2023-07-31T11:15:39;5.25;;;3.67;;
22851;SDS011;11592;45.460;9.240;2023-07-31T11:18:06;6.07;;;4.70;;
22851;SDS011;11592;45.460;9.240;2023-07-31T11:20:34;5.88;;;4.38;;
22851;SDS011;11592;45.460;9.240;2023-07-31T11:23:03;6.28;;;4.70;;
22851;SDS011;11592;45.460;9.240;2023-07-31T11:25:35;6.88;;;4.65;;
22851;SDS011;11592;45.460;9.240;2023-07-31T11:28:10;6.20;;;4.75;;
22851;SDS011;11592;45.460;9.240;2023-07-31T11:30:38;7.47;;;3.95;;
22851;SDS011;11592;45.460;9.240;2023-07-31T11:33:08;6.35;;;3.83;;
22851;SDS011;11592;45.460;9.240;2023-07-31T11:35:36;6.15;;;4.30;;
22851;SDS011;11592;45.460;9.240;2023-07-31T11:38:07;6.32;;;4.38;;
22851;SDS011;11592;45.460;9.240;2023-07-31T11:40:41;5.95;;;4.32;;
22851;SDS011;11592;45.460;9.240;2023-07-31T11:43:09;5.28;;;3.42;;
22851;SDS011;11592;45.460;9.240;2023-07-31T11:45:37;4.15;;;3.75;;
22851;SDS011;11592;45.460;9.240;2023-07-31T11:48:05;8.35;;;4.45;;
22851;SDS011;11592;45.460;9.240;2023-07-31T11:50:34;5.82;;;3.80;;
22851;SDS011;11592;45.460;9.240;2023-07-31T11:53:04;4.55;;;3.35;;
22851;SDS011;11592;45.460;9.240;2023-07-31T11:55:35;4.47;;;3.58;;
22851;SDS011;11592;45.460;9.240;2023-07-31T11:58:02;4.30;;;3.38;;
22851;SDS011;11592;45.460;9.240;2023-07-31T12:00:29;6.38;;;3.80;;
22851;SDS011;11592;45.460;9.240;2023-07-31T12:02:57;5.07;;;3.80;;
22851;SDS011;11592;45.460;9.240;2023-07-31T12:05:24;6.53;;;4.00;;
22851;SDS011;11592;45.460;9.240;2023-07-31T12:07:52;5.72;;;4.00;;
22851;SDS011;11592;45.460;9.240;2023-07-31T12:10:23;5.43;;;3.45;;
22851;SDS011;11592;45.460;9.240;2023-07-31T12:15:46;4.47;;;3.40;;
22851;SDS011;11592;45.460;9.240;2023-07-31T12:18:15;5.15;;;3.05;;
22851;SDS011;11592;45.460;9.240;2023-07-31T12:20:47;4.38;;;3.20;;
22851;SDS011;11592;45.460;9.240;2023-07-31T12:23:22;6.00;;;4.10;;
22851;SDS011;11592;45.460;9.240;2023-07-31T12:26:04;4.80;;;3.20;;
22851;SDS011;11592;45.460;9.240;2023-07-31T12:28:35;6.47;;;3.63;;
22851;SDS011;11592;45.460;9.240;2023-07-31T12:31:09;5.75;;;3.70;;
22851;SDS011;11592;45.460;9.240;2023-07-31T12:33:46;5.60;;;3.20;;
22851;SDS011;11592;45.460;9.240;2023-07-31T12:36:16;5.00;;;3.47;;
22851;SDS011;11592;45.460;9.240;2023-07-31T12:38:44;3.70;;;3.25;;
22851;SDS011;11592;45.460;9.240;2023-07-31T12:41:12;4.53;;;3.70;;
22851;SDS011;11592;45.460;9.240;2023-07-31T12:43:39;4.57;;;3.15;;
22851;SDS011;11592;45.460;9.240;2023-07-31T12:46:07;4.63;;;3.15;;
22851;SDS011;11592;45.460;9.240;2023-07-31T12:48:36;6.43;;;2.88;;
22851;SDS011;11592;45.460;9.240;2023-07-31T12:51:03;5.25;;;3.53;;
22851;SDS011;11592;45.460;9.240;2023-07-31T12:53:30;7.20;;;3.60;;
22851;SDS011;11592;45.460;9.240;2023-07-31T12:55:57;4.72;;;3.22;;
22851;SDS011;11592;45.460;9.240;2023-07-31T12:58:24;5.40;;;3.28;;
22851;SDS011;11592;45.460;9.240;2023-07-31T13:00:51;3.60;;;3.30;;
22851;SDS011;11592;45.460;9.240;2023-07-31T13:03:18;7.68;;;3.65;;
22851;SDS011;11592;45.460;9.240;2023-07-31T13:05:45;5.32;;;3.08;;
22851;SDS011;11592;45.460;9.240;2023-07-31T13:08:12;4.40;;;3.50;;
22851;SDS011;11592;45.460;9.240;2023-07-31T13:10:40;5.18;;;3.58;;
22851;SDS011;11592;45.460;9.240;2023-07-31T13:13:06;6.82;;;3.33;;
22851;SDS011;11592;45.460;9.240;2023-07-31T13:15:33;5.78;;;3.35;;
22851;SDS011;11592;45.460;9.240;2023-07-31T13:18:00;5.45;;;3.35;;
22851;SDS011;11592;45.460;9.240;2023-07-31T13:20:27;4.68;;;3.50;;
22851;SDS011;11592;45.460;9.240;2023-07-31T13:22:54;5.55;;;3.53;;
22851;SDS011;11592;45.460;9.240;2023-07-31T13:25:21;8.40;;;3.22;;
22851;SDS011;11592;45.460;9.240;2023-07-31T13:27:48;7.82;;;3.47;;
22851;SDS011;11592;45.460;9.240;2023-07-31T13:30:14;5.20;;;3.38;;
22851;SDS011;11592;45.460;9.240;2023-07-31T13:32:41;10.43;;;4.32;;
22851;SDS011;11592;45.460;9.240;2023-07-31T13:35:08;6.57;;;3.70;;
22851;SDS011;11592;45.460;9.240;2023-07-31T13:37:37;5.68;;;3.60;;
22851;SDS011;11592;45.460;9.240;2023-07-31T13:40:04;6.38;;;3.88;;
22851;SDS011;11592;45.460;9.240;2023-07-31T13:42:32;3.97;;;3.38;;
22851;SDS011;11592;45.460;9.240;2023-07-31T13:44:59;4.25;;;3.22;;
22851;SDS011;11592;45.460;9.240;2023-07-31T13:47:28;7.25;;;2.95;;
22851;SDS011;11592;45.460;9.240;2023-07-31T13:49:55;6.32;;;3.30;;
22851;SDS011;11592;45.460;9.240;2023-07-31T13:52:22;7.13;;;3.17;;
22851;SDS011;11592;45.460;9.240;2023-07-31T13:54:49;3.58;;;3.05;;
22851;SDS011;11592;45.460;9.240;2023-07-31T13:57:16;3.47;;;2.70;;
22851;SDS011;11592;45.460;9.240;2023-07-31T13:59:43;4.40;;;3.10;;
22851;SDS011;11592;45.460;9.240;2023-07-31T14:02:10;4.15;;;3.40;;
22851;SDS011;11592;45.460;9.240;2023-07-31T14:04:37;4.60;;;2.85;;
22851;SDS011;11592;45.460;9.240;2023-07-31T14:07:04;4.82;;;3.22;;
22851;SDS011;11592;45.460;9.240;2023-07-31T14:09:31;7.78;;;2.90;;
22851;SDS011;11592;45.460;9.240;2023-07-31T14:11:57;3.50;;;3.10;;
22851;SDS011;11592;45.460;9.240;2023-07-31T14:14:24;4.82;;;2.80;;
22851;SDS011;11592;45.460;9.240;2023-07-31T14:16:51;3.58;;;2.58;;
22851;SDS011;11592;45.460;9.240;2023-07-31T14:19:18;5.80;;;2.67;;
22851;SDS011;11592;45.460;9.240;2023-07-31T14:21:45;4.78;;;2.95;;
22851;SDS011;11592;45.460;9.240;2023-07-31T14:24:26;4.00;;;2.88;;
22851;SDS011;11592;45.460;9.240;2023-07-31T14:26:53;5.20;;;3.20;;
22851;SDS011;11592;45.460;9.240;2023-07-31T14:29:19;3.15;;;2.85;;
22851;SDS011;11592;45.460;9.240;2023-07-31T14:31:46;3.58;;;2.95;;
22851;SDS011;11592;45.460;9.240;2023-07-31T14:34:13;14.07;;;3.00;;
22851;SDS011;11592;45.460;9.240;2023-07-31T14:36:40;5.07;;;3.10;;
22851;SDS011;11592;45.460;9.240;2023-07-31T14:39:07;5.30;;;2.50;;
22851;SDS011;11592;45.460;9.240;2023-07-31T14:41:34;3.72;;;2.78;;
22851;SDS011;11592;45.460;9.240;2023-07-31T14:44:01;3.28;;;2.75;;
22851;SDS011;11592;45.460;9.240;2023-07-31T14:46:27;4.85;;;2.60;;
22851;SDS011;11592;45.460;9.240;2023-07-31T14:48:54;3.60;;;2.47;;
22851;SDS011;11592;45.460;9.240;2023-07-31T14:51:21;3.50;;;2.60;;
22851;SDS011;11592;45.460;9.240;2023-07-31T14:53:48;3.95;;;2.65;;
22851;SDS011;11592;45.460;9.240;2023-07-31T14:56:15;4.57;;;2.83;;
22851;SDS011;11592;45.460;9.240;2023-07-31T14:58:42;3.03;;;2.70;;
22851;SDS011;11592;45.460;9.240;2023-07-31T15:01:09;3.58;;;2.50;;
22851;SDS011;11592;45.460;9.240;2023-07-31T15:03:35;3.70;;;2.83;;